sensor_id;sensor_type;location;lat;lon;timestamp;temperature;humidity
18337;DHT22;9294;51.106;7.028;2023-03-23T00:02:50;19.70;88.10
18337;DHT22;9294;51.106;7.028;2023-03-23T00:07:45;19.70;88.10
18337;DHT22;9294;51.106;7.028;2023-03-23T00:15:15;19.70;88.20
18337;DHT22;9294;51.106;7.028;2023-03-23T00:17:42;19.60;88.10
18337;DHT22;9294;51.106;7.028;2023-03-23T00:20:10;19.70;88.20
18337;DHT22;9294;51.106;7.028;2023-03-23T00:25:08;19.60;88.10
18337;DHT22;9294;51.106;7.028;2023-03-23T00:34:57;19.60;88.20
18337;DHT22;9294;51.106;7.028;2023-03-23T00:42:24;19.60;88.20
18337;DHT22;9294;51.106;7.028;2023-03-23T00:44:51;19.60;88.20
18337;DHT22;9294;51.106;7.028;2023-03-23T00:59:45;19.60;88.10
18337;DHT22;9294;51.106;7.028;2023-03-23T01:12:06;19.60;88.10
18337;DHT22;9294;51.106;7.028;2023-03-23T01:17:01;19.60;88.10
18337;DHT22;9294;51.106;7.028;2023-03-23T01:24:22;19.50;87.90
18337;DHT22;9294;51.106;7.028;2023-03-23T01:34:11;19.50;87.90
18337;DHT22;9294;51.106;7.028;2023-03-23T01:39:06;19.50;87.90
18337;DHT22;9294;51.106;7.028;2023-03-23T01:41:33;19.50;87.80
18337;DHT22;9294;51.106;7.028;2023-03-23T01:44:03;19.50;87.80
18337;DHT22;9294;51.106;7.028;2023-03-23T01:46:31;19.50;87.80
18337;DHT22;9294;51.106;7.028;2023-03-23T01:49:02;19.50;87.80
18337;DHT22;9294;51.106;7.028;2023-03-23T01:51:34;19.50;87.80
18337;DHT22;9294;51.106;7.028;2023-03-23T01:54:04;19.50;87.90
18337;DHT22;9294;51.106;7.028;2023-03-23T01:56:35;19.50;87.90
18337;DHT22;9294;51.106;7.028;2023-03-23T01:59:07;19.50;87.90
18337;DHT22;9294;51.106;7.028;2023-03-23T02:01:34;19.50;87.90
18337;DHT22;9294;51.106;7.028;2023-03-23T02:04:04;19.50;87.90
18337;DHT22;9294;51.106;7.028;2023-03-23T02:06:33;19.50;87.90
18337;DHT22;9294;51.106;7.028;2023-03-23T02:16:28;19.50;87.90
18337;DHT22;9294;51.106;7.028;2023-03-23T02:19:12;19.50;88.00
18337;DHT22;9294;51.106;7.028;2023-03-23T02:22:13;19.50;88.00
18337;DHT22;9294;51.106;7.028;2023-03-23T02:24:56;19.50;88.10
18337;DHT22;9294;51.106;7.028;2023-03-23T02:27:44;19.50;88.00
18337;DHT22;9294;51.106;7.028;2023-03-23T02:30:29;19.50;88.10
18337;DHT22;9294;51.106;7.028;2023-03-23T02:33:38;19.50;88.10
18337;DHT22;9294;51.106;7.028;2023-03-23T02:36:13;19.40;88.00
18337;DHT22;9294;51.106;7.028;2023-03-23T02:38:45;19.40;88.00
18337;DHT22;9294;51.106;7.028;2023-03-23T02:41:19;19.50;88.10
18337;DHT22;9294;51.106;7.028;2023-03-23T02:43:48;19.40;87.90
18337;DHT22;9294;51.106;7.028;2023-03-23T02:46:16;19.40;87.90
18337;DHT22;9294;51.106;7.028;2023-03-23T02:48:46;19.50;88.00
18337;DHT22;9294;51.106;7.028;2023-03-23T02:51:18;19.40;87.90
18337;DHT22;9294;51.106;7.028;2023-03-23T02:53:47;19.50;87.90
18337;DHT22;9294;51.106;7.028;2023-03-23T02:56:16;19.50;87.90
18337;DHT22;9294;51.106;7.028;2023-03-23T03:04:01;19.40;87.80
18337;DHT22;9294;51.106;7.028;2023-03-23T03:06:36;19.40;87.90
18337;DHT22;9294;51.106;7.028;2023-03-23T03:09:09;19.40;87.80
18337;DHT22;9294;51.106;7.028;2023-03-23T03:11:45;19.40;87.80
18337;DHT22;9294;51.106;7.028;2023-03-23T03:14:19;19.40;87.80
18337;DHT22;9294;51.106;7.028;2023-03-23T03:16:53;19.40;87.80
18337;DHT22;9294;51.106;7.028;2023-03-23T03:19:26;19.40;87.80
18337;DHT22;9294;51.106;7.028;2023-03-23T03:21:58;19.40;87.90
18337;DHT22;9294;51.106;7.028;2023-03-23T03:24:28;19.40;87.90
18337;DHT22;9294;51.106;7.028;2023-03-23T03:26:57;19.40;88.00
18337;DHT22;9294;51.106;7.028;2023-03-23T03:29:28;20.10;88.70
18337;DHT22;9294;51.106;7.028;2023-03-23T03:31:58;19.40;88.00
18337;DHT22;9294;51.106;7.028;2023-03-23T03:34:26;19.40;88.00
18337;DHT22;9294;51.106;7.028;2023-03-23T03:36:54;19.40;88.00
18337;DHT22;9294;51.106;7.028;2023-03-23T03:49:14;19.40;88.00
18337;DHT22;9294;51.106;7.028;2023-03-23T03:51:42;19.40;88.00
18337;DHT22;9294;51.106;7.028;2023-03-23T03:59:06;19.40;88.00
18337;DHT22;9294;51.106;7.028;2023-03-23T04:01:35;19.30;87.90
18337;DHT22;9294;51.106;7.028;2023-03-23T04:06:32;19.40;88.00
18337;DHT22;9294;51.106;7.028;2023-03-23T04:09:05;19.40;88.00
18337;DHT22;9294;51.106;7.028;2023-03-23T04:26:25;19.30;87.90
18337;DHT22;9294;51.106;7.028;2023-03-23T04:43:40;19.30;88.20
18337;DHT22;9294;51.106;7.028;2023-03-23T04:46:08;19.30;88.40
18337;DHT22;9294;51.106;7.028;2023-03-23T04:48:35;19.40;88.60
18337;DHT22;9294;51.106;7.028;2023-03-23T04:51:05;19.50;88.40
18337;DHT22;9294;51.106;7.028;2023-03-23T04:53:32;19.50;88.10
18337;DHT22;9294;51.106;7.028;2023-03-23T05:00:56;19.70;87.90
18337;DHT22;9294;51.106;7.028;2023-03-23T05:08:23;19.80;87.20
18337;DHT22;9294;51.106;7.028;2023-03-23T05:18:15;20.00;86.80
18337;DHT22;9294;51.106;7.028;2023-03-23T05:30:34;20.20;86.40
18337;DHT22;9294;51.106;7.028;2023-03-23T05:35:30;20.20;86.10
18337;DHT22;9294;51.106;7.028;2023-03-23T05:40:25;20.20;86.00
18337;DHT22;9294;51.106;7.028;2023-03-23T05:50:17;20.30;85.90
18337;DHT22;9294;51.106;7.028;2023-03-23T05:52:45;20.30;85.80
18337;DHT22;9294;51.106;7.028;2023-03-23T05:57:40;20.30;85.80
18337;DHT22;9294;51.106;7.028;2023-03-23T06:00:08;20.30;85.80
18337;DHT22;9294;51.106;7.028;2023-03-23T06:10:10;20.40;85.70
18337;DHT22;9294;51.106;7.028;2023-03-23T06:12:37;20.40;85.60
18337;DHT22;9294;51.106;7.028;2023-03-23T06:15:05;20.40;85.60
18337;DHT22;9294;51.106;7.028;2023-03-23T06:17:32;20.40;85.60
18337;DHT22;9294;51.106;7.028;2023-03-23T06:24:53;20.40;85.60
18337;DHT22;9294;51.106;7.028;2023-03-23T06:27:24;20.40;85.70
18337;DHT22;9294;51.106;7.028;2023-03-23T06:34:45;20.40;85.60
18337;DHT22;9294;51.106;7.028;2023-03-23T06:42:09;20.40;86.10
18337;DHT22;9294;51.106;7.028;2023-03-23T06:44:38;20.40;86.40
18337;DHT22;9294;51.106;7.028;2023-03-23T06:52:00;20.40;87.00
18337;DHT22;9294;51.106;7.028;2023-03-23T06:54:29;20.40;87.80
18337;DHT22;9294;51.106;7.028;2023-03-23T07:01:51;20.30;87.20
18337;DHT22;9294;51.106;7.028;2023-03-23T07:06:46;20.40;87.10
18337;DHT22;9294;51.106;7.028;2023-03-23T07:19:05;20.40;87.50
18337;DHT22;9294;51.106;7.028;2023-03-23T07:28:53;20.40;87.40
18337;DHT22;9294;51.106;7.028;2023-03-23T07:33:47;20.40;87.60
18337;DHT22;9294;51.106;7.028;2023-03-23T07:36:15;20.40;87.80
18337;DHT22;9294;51.106;7.028;2023-03-23T07:46:03;20.40;87.60
18337;DHT22;9294;51.106;7.028;2023-03-23T07:50:58;20.50;87.80
18337;DHT22;9294;51.106;7.028;2023-03-23T07:53:27;20.50;87.80
18337;DHT22;9294;51.106;7.028;2023-03-23T08:00:48;20.50;87.70
18337;DHT22;9294;51.106;7.028;2023-03-23T08:10:40;20.50;87.50
18337;DHT22;9294;51.106;7.028;2023-03-23T08:18:03;20.50;87.60
18337;DHT22;9294;51.106;7.028;2023-03-23T08:27:54;20.50;87.70
18337;DHT22;9294;51.106;7.028;2023-03-23T08:32:50;20.50;87.70
18337;DHT22;9294;51.106;7.028;2023-03-23T08:35:18;20.50;87.80
18337;DHT22;9294;51.106;7.028;2023-03-23T08:42:45;20.50;88.00
18337;DHT22;9294;51.106;7.028;2023-03-23T08:45:18;20.50;88.20
18337;DHT22;9294;51.106;7.028;2023-03-23T08:50:16;20.50;87.90
18337;DHT22;9294;51.106;7.028;2023-03-23T09:00:07;20.50;87.70
18337;DHT22;9294;51.106;7.028;2023-03-23T09:02:46;20.40;87.60
18337;DHT22;9294;51.106;7.028;2023-03-23T09:05:14;20.40;87.60
18337;DHT22;9294;51.106;7.028;2023-03-23T09:07:44;20.40;87.60
18337;DHT22;9294;51.106;7.028;2023-03-23T09:10:13;20.40;87.70
18337;DHT22;9294;51.106;7.028;2023-03-23T09:12:42;20.40;87.70
18337;DHT22;9294;51.106;7.028;2023-03-23T09:15:13;20.30;87.70
18337;DHT22;9294;51.106;7.028;2023-03-23T09:17:42;20.40;87.70
18337;DHT22;9294;51.106;7.028;2023-03-23T09:20:13;20.40;87.80
18337;DHT22;9294;51.106;7.028;2023-03-23T09:22:45;20.30;87.90
18337;DHT22;9294;51.106;7.028;2023-03-23T09:25:14;20.40;87.90
18337;DHT22;9294;51.106;7.028;2023-03-23T09:30:12;20.30;87.60
18337;DHT22;9294;51.106;7.028;2023-03-23T09:35:11;20.30;87.70
18337;DHT22;9294;51.106;7.028;2023-03-23T09:40:09;20.40;87.60
18337;DHT22;9294;51.106;7.028;2023-03-23T09:42:44;20.40;87.60
18337;DHT22;9294;51.106;7.028;2023-03-23T09:45:19;20.40;87.60
18337;DHT22;9294;51.106;7.028;2023-03-23T09:47:59;20.40;87.70
18337;DHT22;9294;51.106;7.028;2023-03-23T09:50:31;20.40;87.70
18337;DHT22;9294;51.106;7.028;2023-03-23T09:53:03;20.40;87.80
18337;DHT22;9294;51.106;7.028;2023-03-23T09:58:10;20.50;88.10
18337;DHT22;9294;51.106;7.028;2023-03-23T10:00:41;20.40;87.70
18337;DHT22;9294;51.106;7.028;2023-03-23T10:03:13;20.50;87.80
18337;DHT22;9294;51.106;7.028;2023-03-23T10:05:45;20.40;87.60
18337;DHT22;9294;51.106;7.028;2023-03-23T10:08:15;20.40;87.60
18337;DHT22;9294;51.106;7.028;2023-03-23T10:10:51;20.40;87.60
18337;DHT22;9294;51.106;7.028;2023-03-23T10:13:32;20.50;87.70
18337;DHT22;9294;51.106;7.028;2023-03-23T10:16:03;20.40;87.60
18337;DHT22;9294;51.106;7.028;2023-03-23T10:18:37;20.50;87.80
18337;DHT22;9294;51.106;7.028;2023-03-23T10:21:13;20.40;87.90
18337;DHT22;9294;51.106;7.028;2023-03-23T10:23:50;20.50;88.10
18337;DHT22;9294;51.106;7.028;2023-03-23T10:26:30;20.50;88.00
18337;DHT22;9294;51.106;7.028;2023-03-23T10:29:01;20.50;88.30
18337;DHT22;9294;51.106;7.028;2023-03-23T10:31:38;20.50;88.30
18337;DHT22;9294;51.106;7.028;2023-03-23T10:34:11;20.50;88.40
18337;DHT22;9294;51.106;7.028;2023-03-23T10:36:56;20.50;88.20
18337;DHT22;9294;51.106;7.028;2023-03-23T10:39:29;20.50;88.30
18337;DHT22;9294;51.106;7.028;2023-03-23T10:42:00;20.50;88.50
18337;DHT22;9294;51.106;7.028;2023-03-23T10:44:33;20.50;89.40
18337;DHT22;9294;51.106;7.028;2023-03-23T10:47:02;20.50;89.70
18337;DHT22;9294;51.106;7.028;2023-03-23T10:49:34;20.50;89.70
18337;DHT22;9294;51.106;7.028;2023-03-23T10:52:09;20.50;89.70
18337;DHT22;9294;51.106;7.028;2023-03-23T10:54:39;20.50;90.10
18337;DHT22;9294;51.106;7.028;2023-03-23T10:57:17;20.50;90.10
18337;DHT22;9294;51.106;7.028;2023-03-23T10:59:48;20.50;90.40
18337;DHT22;9294;51.106;7.028;2023-03-23T11:02:17;20.50;90.60
18337;DHT22;9294;51.106;7.028;2023-03-23T11:04:53;20.50;90.30
18337;DHT22;9294;51.106;7.028;2023-03-23T11:07:39;20.50;90.40
18337;DHT22;9294;51.106;7.028;2023-03-23T11:10:16;20.50;90.80
18337;DHT22;9294;51.106;7.028;2023-03-23T11:12:45;20.50;90.70
18337;DHT22;9294;51.106;7.028;2023-03-23T11:15:26;20.40;90.80
18337;DHT22;9294;51.106;7.028;2023-03-23T11:17:59;20.40;90.90
18337;DHT22;9294;51.106;7.028;2023-03-23T11:20:28;20.40;91.20
18337;DHT22;9294;51.106;7.028;2023-03-23T11:22:57;20.40;90.60
18337;DHT22;9294;51.106;7.028;2023-03-23T11:30:22;20.50;90.60
18337;DHT22;9294;51.106;7.028;2023-03-23T11:32:51;20.50;90.70
18337;DHT22;9294;51.106;7.028;2023-03-23T11:35:21;20.50;90.70
18337;DHT22;9294;51.106;7.028;2023-03-23T11:37:50;20.50;90.60
18337;DHT22;9294;51.106;7.028;2023-03-23T11:40:22;20.50;90.70
18337;DHT22;9294;51.106;7.028;2023-03-23T11:42:56;20.50;90.80
18337;DHT22;9294;51.106;7.028;2023-03-23T11:45:27;20.40;90.70
18337;DHT22;9294;51.106;7.028;2023-03-23T11:48:03;20.50;90.70
18337;DHT22;9294;51.106;7.028;2023-03-23T11:50:34;20.50;90.80
18337;DHT22;9294;51.106;7.028;2023-03-23T11:53:08;20.50;90.80
18337;DHT22;9294;51.106;7.028;2023-03-23T11:55:53;20.50;90.80
18337;DHT22;9294;51.106;7.028;2023-03-23T12:00:55;20.50;90.90
18337;DHT22;9294;51.106;7.028;2023-03-23T12:03:31;20.40;90.90
18337;DHT22;9294;51.106;7.028;2023-03-23T12:06:06;20.50;90.90
18337;DHT22;9294;51.106;7.028;2023-03-23T12:08:50;20.50;91.00
18337;DHT22;9294;51.106;7.028;2023-03-23T12:11:24;20.40;91.00
18337;DHT22;9294;51.106;7.028;2023-03-23T12:14:06;20.40;91.10
18337;DHT22;9294;51.106;7.028;2023-03-23T12:16:48;20.40;91.10
18337;DHT22;9294;51.106;7.028;2023-03-23T12:19:22;20.40;91.00
18337;DHT22;9294;51.106;7.028;2023-03-23T12:21:57;20.40;91.10
18337;DHT22;9294;51.106;7.028;2023-03-23T12:24:39;20.40;91.10
18337;DHT22;9294;51.106;7.028;2023-03-23T12:27:16;20.40;91.20
18337;DHT22;9294;51.106;7.028;2023-03-23T12:29:59;20.40;91.20
18337;DHT22;9294;51.106;7.028;2023-03-23T12:35:25;20.40;91.30
18337;DHT22;9294;51.106;7.028;2023-03-23T12:38:08;20.50;91.30
18337;DHT22;9294;51.106;7.028;2023-03-23T12:40:56;20.50;91.40
18337;DHT22;9294;51.106;7.028;2023-03-23T12:43:32;20.40;91.30
18337;DHT22;9294;51.106;7.028;2023-03-23T12:46:20;20.40;91.40
18337;DHT22;9294;51.106;7.028;2023-03-23T12:48:51;20.40;91.40
18337;DHT22;9294;51.106;7.028;2023-03-23T12:51:22;20.40;91.40
18337;DHT22;9294;51.106;7.028;2023-03-23T12:53:56;20.40;91.30
18337;DHT22;9294;51.106;7.028;2023-03-23T12:56:28;20.40;91.20
18337;DHT22;9294;51.106;7.028;2023-03-23T12:59:02;20.50;91.20
18337;DHT22;9294;51.106;7.028;2023-03-23T13:01:32;20.50;91.40
18337;DHT22;9294;51.106;7.028;2023-03-23T13:04:04;20.50;91.20
18337;DHT22;9294;51.106;7.028;2023-03-23T13:06:35;20.50;91.20
18337;DHT22;9294;51.106;7.028;2023-03-23T13:09:05;20.50;91.10
18337;DHT22;9294;51.106;7.028;2023-03-23T13:11:35;20.50;91.30
18337;DHT22;9294;51.106;7.028;2023-03-23T13:14:15;20.50;91.20
18337;DHT22;9294;51.106;7.028;2023-03-23T13:16:49;20.50;91.20
18337;DHT22;9294;51.106;7.028;2023-03-23T13:19:22;20.50;91.20
18337;DHT22;9294;51.106;7.028;2023-03-23T13:21:55;20.40;91.20
18337;DHT22;9294;51.106;7.028;2023-03-23T13:24:27;20.50;91.20
18337;DHT22;9294;51.106;7.028;2023-03-23T13:29:28;20.50;91.20
18337;DHT22;9294;51.106;7.028;2023-03-23T13:32:06;20.40;91.20
18337;DHT22;9294;51.106;7.028;2023-03-23T13:34:35;20.40;91.20
18337;DHT22;9294;51.106;7.028;2023-03-23T13:37:03;20.40;91.20
18337;DHT22;9294;51.106;7.028;2023-03-23T13:39:32;20.40;91.20
18337;DHT22;9294;51.106;7.028;2023-03-23T13:42:03;20.40;91.20
18337;DHT22;9294;51.106;7.028;2023-03-23T13:44:44;20.40;91.20
18337;DHT22;9294;51.106;7.028;2023-03-23T13:47:27;20.40;91.20
18337;DHT22;9294;51.106;7.028;2023-03-23T13:49:55;20.40;91.30
18337;DHT22;9294;51.106;7.028;2023-03-23T13:52:24;20.40;91.30
18337;DHT22;9294;51.106;7.028;2023-03-23T13:55:18;20.40;91.30
18337;DHT22;9294;51.106;7.028;2023-03-23T13:57:50;20.40;91.40
18337;DHT22;9294;51.106;7.028;2023-03-23T14:00:45;20.40;91.30
18337;DHT22;9294;51.106;7.028;2023-03-23T14:03:15;20.40;91.30
18337;DHT22;9294;51.106;7.028;2023-03-23T14:05:44;20.40;91.30
18337;DHT22;9294;51.106;7.028;2023-03-23T14:08:14;20.40;91.50
18337;DHT22;9294;51.106;7.028;2023-03-23T14:10:51;20.40;91.30
18337;DHT22;9294;51.106;7.028;2023-03-23T14:13:21;20.40;91.30
18337;DHT22;9294;51.106;7.028;2023-03-23T14:15:59;20.40;91.20
18337;DHT22;9294;51.106;7.028;2023-03-23T14:18:31;20.40;91.30
18337;DHT22;9294;51.106;7.028;2023-03-23T14:20:59;20.40;91.30
18337;DHT22;9294;51.106;7.028;2023-03-23T14:25:58;20.40;91.40
18337;DHT22;9294;51.106;7.028;2023-03-23T14:28:31;20.40;91.40
18337;DHT22;9294;51.106;7.028;2023-03-23T14:30:59;20.40;91.40
18337;DHT22;9294;51.106;7.028;2023-03-23T14:35:57;20.50;91.50
18337;DHT22;9294;51.106;7.028;2023-03-23T14:38:25;20.40;91.50
18337;DHT22;9294;51.106;7.028;2023-03-23T14:41:00;20.50;91.60
18337;DHT22;9294;51.106;7.028;2023-03-23T14:45:56;20.50;91.40
18337;DHT22;9294;51.106;7.028;2023-03-23T14:48:26;20.50;91.40
18337;DHT22;9294;51.106;7.028;2023-03-23T14:50:56;20.40;91.40
18337;DHT22;9294;51.106;7.028;2023-03-23T14:53:25;20.50;91.40
18337;DHT22;9294;51.106;7.028;2023-03-23T14:55:54;20.40;91.30
18337;DHT22;9294;51.106;7.028;2023-03-23T14:58:23;20.50;91.40
18337;DHT22;9294;51.106;7.028;2023-03-23T15:00:54;20.50;91.40
18337;DHT22;9294;51.106;7.028;2023-03-23T15:03:24;20.50;91.40
18337;DHT22;9294;51.106;7.028;2023-03-23T15:05:56;20.40;91.40
18337;DHT22;9294;51.106;7.028;2023-03-23T15:08:25;20.40;91.40
18337;DHT22;9294;51.106;7.028;2023-03-23T15:11:05;20.40;91.50
18337;DHT22;9294;51.106;7.028;2023-03-23T15:13:33;20.40;91.50
18337;DHT22;9294;51.106;7.028;2023-03-23T15:16:06;20.50;91.60
18337;DHT22;9294;51.106;7.028;2023-03-23T15:18:35;20.50;91.50
18337;DHT22;9294;51.106;7.028;2023-03-23T15:21:19;20.50;91.50
18337;DHT22;9294;51.106;7.028;2023-03-23T15:26:27;20.50;91.50
18337;DHT22;9294;51.106;7.028;2023-03-23T15:29:03;20.40;91.50
18337;DHT22;9294;51.106;7.028;2023-03-23T15:34:01;20.50;91.50
18337;DHT22;9294;51.106;7.028;2023-03-23T15:36:34;20.50;91.40
18337;DHT22;9294;51.106;7.028;2023-03-23T15:39:02;20.50;91.50
18337;DHT22;9294;51.106;7.028;2023-03-23T15:41:31;20.50;91.50
18337;DHT22;9294;51.106;7.028;2023-03-23T15:44:10;20.50;91.50
18337;DHT22;9294;51.106;7.028;2023-03-23T15:46:48;20.50;91.50
18337;DHT22;9294;51.106;7.028;2023-03-23T15:51:44;20.40;91.40
18337;DHT22;9294;51.106;7.028;2023-03-23T15:54:14;20.40;91.40
18337;DHT22;9294;51.106;7.028;2023-03-23T15:56:42;20.50;91.50
18337;DHT22;9294;51.106;7.028;2023-03-23T15:59:09;20.40;91.50
18337;DHT22;9294;51.106;7.028;2023-03-23T16:01:38;20.50;91.60
18337;DHT22;9294;51.106;7.028;2023-03-23T16:04:07;20.50;91.60
18337;DHT22;9294;51.106;7.028;2023-03-23T16:06:35;20.50;91.60
18337;DHT22;9294;51.106;7.028;2023-03-23T16:09:06;20.70;91.60
18337;DHT22;9294;51.106;7.028;2023-03-23T16:11:36;20.50;91.60
18337;DHT22;9294;51.106;7.028;2023-03-23T16:14:03;20.50;91.50
18337;DHT22;9294;51.106;7.028;2023-03-23T16:16:33;20.50;91.50
18337;DHT22;9294;51.106;7.028;2023-03-23T16:23:56;20.50;91.50
18337;DHT22;9294;51.106;7.028;2023-03-23T16:26:24;20.50;91.50
18337;DHT22;9294;51.106;7.028;2023-03-23T16:31:18;20.50;91.50
18337;DHT22;9294;51.106;7.028;2023-03-23T16:38:40;20.50;91.40
18337;DHT22;9294;51.106;7.028;2023-03-23T16:41:07;20.50;91.40
18337;DHT22;9294;51.106;7.028;2023-03-23T16:43:35;20.50;91.50
18337;DHT22;9294;51.106;7.028;2023-03-23T16:46:03;20.60;91.60
18337;DHT22;9294;51.106;7.028;2023-03-23T16:55:52;20.50;91.60
18337;DHT22;9294;51.106;7.028;2023-03-23T17:00:50;20.50;91.60
18337;DHT22;9294;51.106;7.028;2023-03-23T17:03:18;20.50;91.70
18337;DHT22;9294;51.106;7.028;2023-03-23T17:05:46;20.50;91.60
18337;DHT22;9294;51.106;7.028;2023-03-23T17:08:13;20.50;91.70
18337;DHT22;9294;51.106;7.028;2023-03-23T17:10:41;20.50;91.70
18337;DHT22;9294;51.106;7.028;2023-03-23T17:15:36;20.50;91.90
18337;DHT22;9294;51.106;7.028;2023-03-23T17:18:05;20.50;91.90
18337;DHT22;9294;51.106;7.028;2023-03-23T17:25:27;20.40;92.00
18337;DHT22;9294;51.106;7.028;2023-03-23T17:27:55;20.40;92.20
18337;DHT22;9294;51.106;7.028;2023-03-23T17:30:22;20.40;92.20
18337;DHT22;9294;51.106;7.028;2023-03-23T17:35:17;20.40;91.80
18337;DHT22;9294;51.106;7.028;2023-03-23T17:37:45;20.40;91.80
18337;DHT22;9294;51.106;7.028;2023-03-23T17:45:08;20.50;91.70
18337;DHT22;9294;51.106;7.028;2023-03-23T17:52:31;20.50;91.70
18337;DHT22;9294;51.106;7.028;2023-03-23T17:57:25;20.50;91.60
18337;DHT22;9294;51.106;7.028;2023-03-23T18:07:13;20.50;91.50
18337;DHT22;9294;51.106;7.028;2023-03-23T18:09:41;20.50;91.60
18337;DHT22;9294;51.106;7.028;2023-03-23T18:12:08;20.50;91.60
18337;DHT22;9294;51.106;7.028;2023-03-23T18:26:54;20.50;91.50
18337;DHT22;9294;51.106;7.028;2023-03-23T18:29:21;20.50;91.70
18337;DHT22;9294;51.106;7.028;2023-03-23T18:34:15;20.40;92.10
18337;DHT22;9294;51.106;7.028;2023-03-23T18:44:05;20.50;91.60
18337;DHT22;9294;51.106;7.028;2023-03-23T18:51:26;20.50;91.40
18337;DHT22;9294;51.106;7.028;2023-03-23T18:58:51;20.40;91.30
18337;DHT22;9294;51.106;7.028;2023-03-23T19:01:19;20.40;91.30
18337;DHT22;9294;51.106;7.028;2023-03-23T19:06:15;20.40;91.30
18337;DHT22;9294;51.106;7.028;2023-03-23T19:16:04;20.40;91.10
18337;DHT22;9294;51.106;7.028;2023-03-23T19:18:33;20.40;91.20
18337;DHT22;9294;51.106;7.028;2023-03-23T19:30:52;20.40;91.20
18337;DHT22;9294;51.106;7.028;2023-03-23T19:33:19;20.40;91.20
18337;DHT22;9294;51.106;7.028;2023-03-23T19:35:49;20.40;91.20
18337;DHT22;9294;51.106;7.028;2023-03-23T19:38:17;20.40;91.20
18337;DHT22;9294;51.106;7.028;2023-03-23T19:40:52;20.40;91.20
18337;DHT22;9294;51.106;7.028;2023-03-23T19:48:14;20.50;91.20
18337;DHT22;9294;51.106;7.028;2023-03-23T19:53:09;20.40;91.20
18337;DHT22;9294;51.106;7.028;2023-03-23T19:58:04;20.40;91.20
18337;DHT22;9294;51.106;7.028;2023-03-23T20:05:25;20.40;91.20
18337;DHT22;9294;51.106;7.028;2023-03-23T20:07:52;20.40;91.20
18337;DHT22;9294;51.106;7.028;2023-03-23T20:10:21;20.40;91.20
18337;DHT22;9294;51.106;7.028;2023-03-23T20:15:15;20.40;91.20
18337;DHT22;9294;51.106;7.028;2023-03-23T20:17:42;20.40;91.20
18337;DHT22;9294;51.106;7.028;2023-03-23T20:20:09;20.40;91.20
18337;DHT22;9294;51.106;7.028;2023-03-23T20:25:04;20.40;91.20
18337;DHT22;9294;51.106;7.028;2023-03-23T20:27:33;20.40;91.20
18337;DHT22;9294;51.106;7.028;2023-03-23T20:30:00;20.40;91.20
18337;DHT22;9294;51.106;7.028;2023-03-23T20:32:28;20.40;91.20
18337;DHT22;9294;51.106;7.028;2023-03-23T20:44:47;20.40;91.20
18337;DHT22;9294;51.106;7.028;2023-03-23T21:02:01;20.40;91.30
18337;DHT22;9294;51.106;7.028;2023-03-23T21:11:52;20.40;91.30
18337;DHT22;9294;51.106;7.028;2023-03-23T21:19:14;20.40;91.30
18337;DHT22;9294;51.106;7.028;2023-03-23T21:21:41;20.40;91.30
18337;DHT22;9294;51.106;7.028;2023-03-23T21:24:09;20.40;91.30
18337;DHT22;9294;51.106;7.028;2023-03-23T21:26:38;20.40;91.30
18337;DHT22;9294;51.106;7.028;2023-03-23T21:29:06;20.40;91.30
18337;DHT22;9294;51.106;7.028;2023-03-23T21:31:37;20.40;91.40
18337;DHT22;9294;51.106;7.028;2023-03-23T21:36:32;20.40;91.40
18337;DHT22;9294;51.106;7.028;2023-03-23T21:46:24;20.40;91.40
18337;DHT22;9294;51.106;7.028;2023-03-23T21:51:20;20.40;91.50
18337;DHT22;9294;51.106;7.028;2023-03-23T21:53:48;20.40;91.50
18337;DHT22;9294;51.106;7.028;2023-03-23T21:56:19;20.40;91.50
18337;DHT22;9294;51.106;7.028;2023-03-23T21:58:48;20.40;91.50
18337;DHT22;9294;51.106;7.028;2023-03-23T22:01:15;20.40;91.60
18337;DHT22;9294;51.106;7.028;2023-03-23T22:03:43;20.40;91.60
18337;DHT22;9294;51.106;7.028;2023-03-23T22:06:11;20.40;91.60
18337;DHT22;9294;51.106;7.028;2023-03-23T22:08:41;20.40;91.60
18337;DHT22;9294;51.106;7.028;2023-03-23T22:11:12;20.40;91.60
18337;DHT22;9294;51.106;7.028;2023-03-23T22:16:08;20.40;91.70
18337;DHT22;9294;51.106;7.028;2023-03-23T22:18:36;20.40;91.70
18337;DHT22;9294;51.106;7.028;2023-03-23T22:21:06;20.40;91.70
18337;DHT22;9294;51.106;7.028;2023-03-23T22:23:34;20.40;91.70
18337;DHT22;9294;51.106;7.028;2023-03-23T22:26:01;20.40;91.70
18337;DHT22;9294;51.106;7.028;2023-03-23T22:28:29;20.40;91.70
18337;DHT22;9294;51.106;7.028;2023-03-23T22:30:59;20.40;91.80
18337;DHT22;9294;51.106;7.028;2023-03-23T22:40:54;20.40;91.80
18337;DHT22;9294;51.106;7.028;2023-03-23T22:45:50;20.30;91.80
18337;DHT22;9294;51.106;7.028;2023-03-23T22:50:44;20.40;91.90
18337;DHT22;9294;51.106;7.028;2023-03-23T22:55:41;20.40;91.90
18337;DHT22;9294;51.106;7.028;2023-03-23T22:58:08;20.30;91.80
18337;DHT22;9294;51.106;7.028;2023-03-23T23:03:04;20.40;91.90
18337;DHT22;9294;51.106;7.028;2023-03-23T23:10:25;20.40;91.80
18337;DHT22;9294;51.106;7.028;2023-03-23T23:20:15;20.30;91.80
18337;DHT22;9294;51.106;7.028;2023-03-23T23:30:06;20.30;91.70
18337;DHT22;9294;51.106;7.028;2023-03-23T23:32:34;20.30;91.70
18337;DHT22;9294;51.106;7.028;2023-03-23T23:37:30;20.30;91.70
18337;DHT22;9294;51.106;7.028;2023-03-23T23:42:24;20.30;91.70
18337;DHT22;9294;51.106;7.028;2023-03-23T23:54:42;20.30;91.70
